createdAt,value
2018-10-06T00:01:57.877Z,97093.00
2018-10-06T00:04:27.490Z,97101.00
2018-10-06T00:06:57.150Z,97104.00
2018-10-06T00:09:29.064Z,97112.00
2018-10-06T00:11:58.766Z,97112.00
2018-10-06T00:14:28.504Z,97113.00
2018-10-06T00:16:58.202Z,97113.00
2018-10-06T00:19:27.886Z,97112.00
2018-10-06T00:21:57.742Z,97109.00
2018-10-06T00:24:27.351Z,97110.00
2018-10-06T00:26:57.065Z,97108.00
2018-10-06T00:29:26.822Z,97103.00
2018-10-06T00:31:56.558Z,97098.00
2018-10-06T00:34:26.525Z,97091.00
2018-10-06T00:36:56.306Z,97080.00
2018-10-06T00:39:26.026Z,97077.00
2018-10-06T00:41:55.786Z,97067.00
2018-10-06T00:44:25.476Z,97065.00
2018-10-06T00:46:55.278Z,97066.00
2018-10-06T00:49:25.036Z,97061.00
2018-10-06T00:51:54.726Z,97061.00
2018-10-06T00:54:24.443Z,97059.00
2018-10-06T00:56:54.123Z,97057.00
2018-10-06T00:59:23.989Z,97056.00
2018-10-06T01:01:53.706Z,97049.00
2018-10-06T01:04:23.668Z,97057.00
2018-10-06T01:06:53.333Z,97055.00
2018-10-06T01:09:23.130Z,97057.00
2018-10-06T01:11:52.806Z,97047.00
2018-10-06T01:17:23.541Z,97047.00
2018-10-06T01:19:53.350Z,97055.00
2018-10-06T01:22:23.067Z,97055.00
2018-10-06T01:24:52.770Z,97053.00
2018-10-06T01:27:22.507Z,97056.00
2018-10-06T01:29:52.354Z,97047.00
2018-10-06T01:32:22.179Z,97043.00
2018-10-06T01:34:52.014Z,97028.00
2018-10-06T01:37:21.823Z,97034.00
2018-10-06T01:39:51.655Z,97034.00
2018-10-06T01:42:21.318Z,97039.00
2018-10-06T01:44:50.970Z,97039.00
2018-10-06T01:47:20.611Z,97032.00
2018-10-06T01:49:50.416Z,97033.00
2018-10-06T01:52:20.004Z,97032.00
2018-10-06T01:54:49.684Z,97026.00
2018-10-06T01:57:19.379Z,97023.00
2018-10-06T01:59:49.030Z,97023.00
2018-10-06T02:02:18.702Z,97023.00
2018-10-06T02:04:48.290Z,97017.00
2018-10-06T02:07:18.010Z,97019.00
2018-10-06T02:09:47.694Z,97018.00
2018-10-06T02:12:17.239Z,97021.00
2018-10-06T02:14:47.040Z,97026.00
2018-10-06T02:17:16.718Z,97020.00
2018-10-06T02:19:46.407Z,97025.00
2018-10-06T02:22:16.151Z,97015.00
2018-10-06T02:24:45.874Z,97018.00
2018-10-06T02:27:15.511Z,97025.00
2018-10-06T02:29:45.161Z,97028.00
2018-10-06T02:32:14.979Z,97031.00
2018-10-06T02:34:44.682Z,97034.00
2018-10-06T02:37:14.302Z,97030.00
2018-10-06T02:39:44.011Z,97038.00
2018-10-06T02:42:13.705Z,97043.00
2018-10-06T02:44:43.354Z,97037.00
2018-10-06T02:47:13.047Z,97041.00
2018-10-06T02:49:42.701Z,97031.00
2018-10-06T02:52:12.309Z,97036.00
2018-10-06T02:54:41.974Z,97039.00
2018-10-06T02:57:11.643Z,97035.00
2018-10-06T02:59:41.326Z,97027.00
2018-10-06T03:02:11.111Z,97027.00
2018-10-06T03:04:40.840Z,97022.00
2018-10-06T03:07:10.485Z,97021.00
2018-10-06T03:09:40.191Z,97017.00
2018-10-06T03:12:09.798Z,97015.00
2018-10-06T03:14:39.665Z,97008.00
2018-10-06T03:17:09.674Z,97006.00
2018-10-06T03:19:39.351Z,97009.00
2018-10-06T03:22:09.006Z,97013.00
2018-10-06T03:24:38.613Z,97011.00
2018-10-06T03:27:08.342Z,97006.00
2018-10-06T03:29:38.033Z,97000.00
2018-10-06T03:32:07.714Z,96991.00
2018-10-06T03:34:37.459Z,96986.00
2018-10-06T03:37:07.178Z,96988.00
2018-10-06T03:39:36.800Z,96993.00
2018-10-06T03:42:06.738Z,96996.00
2018-10-06T03:44:36.403Z,97003.00
2018-10-06T03:47:06.215Z,97002.00
2018-10-06T03:49:35.885Z,97005.00
2018-10-06T03:52:05.683Z,97005.00
2018-10-06T03:54:35.290Z,96996.00
2018-10-06T03:57:05.072Z,96997.00
2018-10-06T03:59:34.795Z,96993.00
2018-10-06T04:02:05.604Z,96995.00
2018-10-06T04:04:35.280Z,96998.00
2018-10-06T04:07:05.067Z,97003.00
2018-10-06T04:09:34.891Z,97007.00
2018-10-06T04:12:04.784Z,96993.00
2018-10-06T04:14:34.498Z,96993.00
2018-10-06T04:17:04.096Z,96990.00
2018-10-06T04:19:33.915Z,96993.00
2018-10-06T04:22:03.638Z,96990.00
2018-10-06T04:24:33.290Z,96981.00
2018-10-06T04:27:02.937Z,96983.00
2018-10-06T04:29:32.611Z,96978.00
2018-10-06T04:32:07.226Z,96977.00
2018-10-06T04:34:37.062Z,96976.00
2018-10-06T04:37:06.830Z,96979.00
2018-10-06T04:39:36.559Z,96972.00
2018-10-06T04:42:06.296Z,96971.00
2018-10-06T04:44:36.207Z,96962.00
2018-10-06T04:47:06.160Z,96957.00
2018-10-06T04:49:35.918Z,96954.00
2018-10-06T04:52:05.765Z,96952.00
2018-10-06T04:54:35.485Z,96954.00
2018-10-06T04:57:05.212Z,96953.00
2018-10-06T04:59:34.827Z,96951.00
2018-10-06T05:02:04.525Z,96952.00
2018-10-06T05:04:34.123Z,96945.00
2018-10-06T05:07:03.780Z,96945.00
2018-10-06T05:09:33.543Z,96943.00
2018-10-06T05:12:03.339Z,96940.00
2018-10-06T05:26:39.282Z,96961.00
2018-10-06T05:29:08.951Z,96967.00
2018-10-06T05:31:38.826Z,96971.00
2018-10-06T05:34:08.650Z,96976.00
2018-10-06T05:36:38.303Z,96983.00
2018-10-06T05:39:10.498Z,96981.00
2018-10-06T05:41:40.255Z,96981.00
2018-10-06T05:44:10.209Z,96984.00
2018-10-06T05:46:39.872Z,96975.00
2018-10-06T05:49:09.519Z,96979.00
2018-10-06T05:51:39.246Z,96988.00
2018-10-06T05:54:29.825Z,96986.00
2018-10-06T05:56:59.454Z,96981.00
2018-10-06T05:59:29.084Z,96984.00
2018-10-06T06:01:58.795Z,96981.00
2018-10-06T06:04:43.310Z,96982.00
2018-10-06T06:07:13.143Z,96971.00
2018-10-06T06:09:43.160Z,96972.00
2018-10-06T06:12:12.762Z,96967.00
2018-10-06T06:14:42.498Z,96972.00
2018-10-06T06:17:12.174Z,96975.00
2018-10-06T06:19:42.214Z,96972.00
2018-10-06T06:22:11.900Z,96971.00
2018-10-06T06:24:45.005Z,96975.00
2018-10-06T06:27:14.825Z,96972.00
2018-10-06T06:29:44.571Z,96980.00
2018-10-06T06:32:14.285Z,96979.00
2018-10-06T06:34:50.283Z,96974.00
2018-10-06T06:37:19.998Z,96979.00
2018-10-06T06:39:49.652Z,96986.00
2018-10-06T06:42:19.352Z,96981.00
2018-10-06T06:44:49.012Z,96985.00
2018-10-06T06:47:18.989Z,96989.00
2018-10-06T06:49:52.846Z,96990.00
2018-10-06T06:52:22.591Z,96985.00
2018-10-06T06:54:52.220Z,96987.00
2018-10-06T06:57:21.939Z,96988.00
2018-10-06T06:59:51.647Z,96989.00
2018-10-06T07:02:21.487Z,96993.00
2018-10-06T07:04:51.192Z,96994.00
2018-10-06T07:07:22.995Z,96996.00
2018-10-06T07:09:52.694Z,96993.00
2018-10-06T07:12:22.535Z,96992.00
2018-10-06T07:15:05.766Z,96996.00
2018-10-06T07:17:35.428Z,97000.00
2018-10-06T07:20:05.082Z,97000.00
2018-10-06T07:22:34.790Z,96999.00
2018-10-06T07:25:04.455Z,96995.00
2018-10-06T07:27:34.161Z,96997.00
2018-10-06T07:30:04.088Z,96998.00
2018-10-06T07:32:34.308Z,96996.00
2018-10-06T07:35:04.444Z,96997.00
2018-10-06T07:37:34.360Z,96995.00
2018-10-06T07:40:04.389Z,96996.00
2018-10-06T07:42:34.015Z,96993.00
2018-10-06T07:45:11.634Z,96999.00
2018-10-06T07:47:45.525Z,97000.00
2018-10-06T07:50:23.947Z,97004.00
2018-10-06T07:52:59.119Z,96999.00
2018-10-06T07:55:28.702Z,96995.00
2018-10-06T07:57:59.133Z,96990.00
2018-10-06T08:00:28.994Z,96980.00
2018-10-06T08:02:59.618Z,96983.00
2018-10-06T08:05:36.396Z,96977.00
2018-10-06T08:08:05.977Z,96972.00
2018-10-06T08:10:35.319Z,96967.00
2018-10-06T08:13:29.884Z,96971.00
2018-10-06T08:15:59.474Z,96961.00
2018-10-06T08:18:28.865Z,96970.00
2018-10-06T08:20:58.436Z,96970.00
2018-10-06T08:23:27.951Z,96961.00
2018-10-06T08:25:57.430Z,96962.00
2018-10-06T08:28:27.746Z,96959.00
2018-10-06T08:30:57.503Z,96950.00
2018-10-06T08:33:27.070Z,96948.00
2018-10-06T08:36:02.144Z,96950.00
2018-10-06T08:38:33.517Z,96944.00
2018-10-06T08:41:03.029Z,96940.00
2018-10-06T08:43:32.595Z,96934.00
2018-10-06T08:46:02.505Z,96934.00
2018-10-06T08:48:32.093Z,96937.00
2018-10-06T08:51:01.902Z,96941.00
2018-10-06T08:53:31.543Z,96949.00
2018-10-06T08:56:00.989Z,96944.00
2018-10-06T08:58:30.568Z,96943.00
2018-10-06T09:01:00.230Z,96941.00
2018-10-06T09:03:32.657Z,96933.00
2018-10-06T09:06:02.038Z,96931.00
2018-10-06T09:08:31.511Z,96935.00
2018-10-06T09:11:01.311Z,96930.00
2018-10-06T09:13:30.945Z,96931.00
2018-10-06T09:16:01.304Z,96930.00
2018-10-06T09:18:30.774Z,96932.00
2018-10-06T09:21:03.102Z,96932.00
2018-10-06T09:23:33.193Z,96938.00
2018-10-06T09:26:06.529Z,96931.00
2018-10-06T09:28:35.897Z,96929.00
2018-10-06T09:31:05.271Z,96922.00
2018-10-06T09:33:55.833Z,96924.00
2018-10-06T09:36:35.914Z,96920.00
2018-10-06T09:39:18.472Z,96916.00
2018-10-06T09:41:50.528Z,96908.00
2018-10-06T09:44:21.095Z,96901.00
2018-10-06T09:46:50.738Z,96899.00
2018-10-06T09:49:20.308Z,96897.00
2018-10-06T09:51:49.756Z,96897.00
2018-10-06T09:54:19.282Z,96888.00
2018-10-06T09:56:48.594Z,96890.00
2018-10-06T09:59:17.953Z,96879.00
2018-10-06T10:01:52.541Z,96877.00
2018-10-06T10:04:22.173Z,96872.00
2018-10-06T10:07:03.865Z,96871.00
2018-10-06T10:09:33.985Z,96855.00
2018-10-06T10:12:03.708Z,96856.00
2018-10-06T10:14:39.294Z,96855.00
2018-10-06T10:17:27.088Z,96855.00
2018-10-06T10:19:56.843Z,96848.00
2018-10-06T10:22:29.517Z,96845.00
2018-10-06T10:24:58.781Z,96849.00
2018-10-06T10:27:28.174Z,96836.00
2018-10-06T10:29:57.564Z,96829.00
2018-10-06T10:32:46.902Z,96824.00
2018-10-06T10:35:16.340Z,96822.00
2018-10-06T10:37:50.681Z,96823.00
2018-10-06T10:40:20.110Z,96822.00
2018-10-06T10:42:49.485Z,96819.00
2018-10-06T10:45:24.953Z,96822.00
2018-10-06T10:47:54.325Z,96819.00
2018-10-06T10:50:28.870Z,96814.00
2018-10-06T10:52:58.320Z,96812.00
2018-10-06T10:55:27.876Z,96809.00
2018-10-06T10:57:57.327Z,96798.00
2018-10-06T11:00:32.178Z,96789.00
2018-10-06T11:03:01.538Z,96785.00
2018-10-06T11:05:30.913Z,96783.00
2018-10-06T11:08:00.316Z,96778.00
2018-10-06T11:10:29.654Z,96774.00
2018-10-06T11:12:59.065Z,96769.00
2018-10-06T11:15:28.816Z,96767.00
2018-10-06T11:17:59.609Z,96764.00
2018-10-06T11:20:28.954Z,96758.00
2018-10-06T11:22:58.363Z,96755.00
2018-10-06T11:25:27.709Z,96746.00
2018-10-06T11:27:57.229Z,96748.00
2018-10-06T11:30:38.293Z,96744.00
2018-10-06T11:33:07.660Z,96736.00
2018-10-06T11:35:37.283Z,96730.00
2018-10-06T11:38:06.941Z,96736.00
2018-10-06T11:40:39.897Z,96721.00
2018-10-06T11:43:26.171Z,96719.00
2018-10-06T11:45:55.501Z,96706.00
2018-10-06T11:48:24.813Z,96710.00
2018-10-06T11:50:54.154Z,96702.00
2018-10-06T11:53:27.563Z,96698.00
2018-10-06T11:55:57.111Z,96694.00
2018-10-06T11:58:26.417Z,96690.00
2018-10-06T12:00:55.737Z,96681.00
2018-10-06T12:03:25.065Z,96674.00
2018-10-06T12:05:54.431Z,96666.00
2018-10-06T12:08:23.711Z,96657.00
2018-10-06T12:10:53.045Z,96650.00
2018-10-06T12:13:22.541Z,96642.00
2018-10-06T12:15:51.853Z,96643.00
2018-10-06T12:18:23.231Z,96634.00
2018-10-06T12:20:52.513Z,96630.00
2018-10-06T12:23:21.900Z,96627.00
2018-10-06T12:25:51.266Z,96623.00
2018-10-06T12:28:20.949Z,96628.00
2018-10-06T12:30:50.353Z,96625.00
2018-10-06T12:33:19.665Z,96625.00
2018-10-06T12:35:49.086Z,96616.00
2018-10-06T12:38:18.725Z,96620.00
2018-10-06T12:40:48.111Z,96612.00
2018-10-06T12:43:17.429Z,96609.00
2018-10-06T12:45:46.831Z,96598.00
2018-10-06T12:48:16.191Z,96600.00
2018-10-06T12:50:45.647Z,96591.00
2018-10-06T12:53:15.033Z,96595.00
2018-10-06T12:55:44.577Z,96591.00
2018-10-06T12:58:13.993Z,96585.00
2018-10-06T13:00:44.415Z,96583.00
2018-10-06T13:03:13.766Z,96581.00
2018-10-06T13:05:43.138Z,96575.00
2018-10-06T13:08:14.127Z,96573.00
2018-10-06T13:10:43.470Z,96572.00
2018-10-06T13:13:12.800Z,96570.00
2018-10-06T13:15:43.172Z,96571.00
2018-10-06T13:18:12.532Z,96573.00
2018-10-06T13:20:41.840Z,96569.00
2018-10-06T13:23:11.473Z,96571.00
2018-10-06T13:28:52.473Z,96570.00
2018-10-06T13:31:22.137Z,96565.00
2018-10-06T13:33:51.451Z,96568.00
2018-10-06T13:36:20.913Z,96571.00
2018-10-06T13:38:50.346Z,96560.00
2018-10-06T13:44:27.477Z,96559.00
2018-10-06T13:46:56.903Z,96558.00
2018-10-06T13:49:26.317Z,96558.00
2018-10-06T13:51:55.661Z,96551.00
2018-10-06T13:54:41.789Z,96547.00
2018-10-06T13:57:17.064Z,96545.00
2018-10-06T13:59:46.411Z,96542.00
2018-10-06T14:02:16.685Z,96539.00
2018-10-06T14:04:50.054Z,96539.00
2018-10-06T14:07:26.854Z,96535.00
2018-10-06T14:09:56.789Z,96531.00
2018-10-06T14:15:27.342Z,96525.00
2018-10-06T14:18:04.202Z,96523.00
2018-10-06T14:20:33.599Z,96518.00
2018-10-06T14:23:02.900Z,96525.00
2018-10-06T14:25:32.433Z,96524.00
2018-10-06T14:28:01.895Z,96520.00
2018-10-06T14:30:31.337Z,96518.00
2018-10-06T14:33:06.452Z,96510.00
2018-10-06T14:35:35.769Z,96514.00
2018-10-06T14:38:05.168Z,96512.00
2018-10-06T14:40:34.980Z,96509.00
2018-10-06T14:43:04.842Z,96514.00
2018-10-06T14:45:56.498Z,96512.00
2018-10-06T14:48:25.812Z,96509.00
2018-10-06T14:50:55.130Z,96512.00
2018-10-06T14:53:31.521Z,96513.00
2018-10-06T14:56:00.882Z,96513.00
2018-10-06T14:58:30.213Z,96506.00
2018-10-06T15:00:59.550Z,96502.00
2018-10-06T15:03:28.894Z,96502.00
2018-10-06T15:05:58.233Z,96500.00
2018-10-06T15:08:27.557Z,96505.00
2018-10-06T15:11:02.485Z,96502.00
2018-10-06T15:13:31.835Z,96499.00
2018-10-06T15:16:09.423Z,96491.00
2018-10-06T15:18:38.800Z,96490.00
2018-10-06T15:21:08.217Z,96486.00
2018-10-06T15:23:37.867Z,96487.00
2018-10-06T15:26:07.644Z,96486.00
2018-10-06T15:28:36.996Z,96486.00
2018-10-06T15:31:06.633Z,96489.00
2018-10-06T15:33:36.133Z,96483.00
2018-10-06T15:36:30.328Z,96478.00
2018-10-06T15:38:59.710Z,96478.00
2018-10-06T15:41:29.058Z,96475.00
2018-10-06T15:43:58.598Z,96482.00
2018-10-06T15:46:32.347Z,96479.00
2018-10-06T15:49:07.398Z,96477.00
2018-10-06T15:51:37.122Z,96477.00
2018-10-06T15:54:06.726Z,96477.00
2018-10-06T15:56:38.326Z,96478.00
2018-10-06T15:59:07.581Z,96479.00
2018-10-06T16:02:01.429Z,96481.00
2018-10-06T16:04:48.553Z,96481.00
2018-10-06T16:07:17.901Z,96484.00
2018-10-06T16:09:47.252Z,96479.00
2018-10-06T16:12:16.646Z,96476.00
2018-10-06T16:14:45.950Z,96474.00
2018-10-06T16:17:16.444Z,96478.00
2018-10-06T16:23:02.823Z,96471.00
2018-10-06T16:25:32.231Z,96468.00
2018-10-06T16:28:01.714Z,96470.00
2018-10-06T16:30:31.070Z,96467.00
2018-10-06T16:33:00.990Z,96470.00
2018-10-06T16:35:30.299Z,96475.00
2018-10-06T16:37:59.781Z,96474.00
2018-10-06T16:40:29.182Z,96467.00
2018-10-06T16:42:58.482Z,96473.00
2018-10-06T16:45:27.863Z,96475.00
2018-10-06T16:47:57.169Z,96477.00
2018-10-06T16:50:26.484Z,96482.00
2018-10-06T16:52:55.793Z,96476.00
2018-10-06T16:55:25.182Z,96480.00
2018-10-06T16:57:54.486Z,96479.00
2018-10-06T17:00:23.962Z,96482.00
2018-10-06T17:02:53.285Z,96480.00
2018-10-06T17:05:22.595Z,96478.00
2018-10-06T17:07:51.927Z,96477.00
2018-10-06T17:10:21.238Z,96474.00
2018-10-06T17:12:50.595Z,96480.00
2018-10-06T17:15:19.900Z,96477.00
2018-10-06T17:17:49.240Z,96482.00
2018-10-06T17:20:18.562Z,96488.00
2018-10-06T17:22:47.890Z,96489.00
2018-10-06T17:25:17.335Z,96488.00
2018-10-06T17:27:46.709Z,96489.00
2018-10-06T17:30:16.133Z,96486.00
2018-10-06T17:32:45.533Z,96496.00
2018-10-06T17:35:14.978Z,96494.00
2018-10-06T17:37:44.317Z,96496.00
2018-10-06T17:40:13.764Z,96500.00
2018-10-06T17:42:43.137Z,96495.00
2018-10-06T17:45:12.455Z,96493.00
2018-10-06T17:47:41.927Z,96498.00
2018-10-06T17:50:22.427Z,96498.00
2018-10-06T17:52:51.690Z,96498.00
2018-10-06T17:55:21.003Z,96494.00
2018-10-06T17:57:50.321Z,96495.00
2018-10-06T18:00:19.809Z,96488.00
2018-10-06T18:02:49.229Z,96494.00
2018-10-06T18:05:18.681Z,96489.00
2018-10-06T18:07:48.149Z,96488.00
2018-10-06T18:10:17.746Z,96496.00
2018-10-06T18:12:47.058Z,96492.00
2018-10-06T18:15:16.390Z,96494.00
2018-10-06T18:17:45.708Z,96494.00
2018-10-06T18:20:15.088Z,96491.00
2018-10-06T18:22:44.352Z,96492.00
2018-10-06T18:25:13.743Z,96492.00
2018-10-06T18:27:43.104Z,96498.00
2018-10-06T18:30:12.469Z,96497.00
2018-10-06T18:32:41.835Z,96492.00
2018-10-06T18:35:11.253Z,96497.00
2018-10-06T18:37:40.587Z,96499.00
2018-10-06T18:40:10.319Z,96506.00
2018-10-06T18:42:40.025Z,96509.00
2018-10-06T18:45:09.330Z,96515.00
2018-10-06T18:47:38.963Z,96516.00
2018-10-06T18:50:08.842Z,96517.00
2018-10-06T18:52:38.535Z,96513.00
2018-10-06T18:55:08.431Z,96517.00
2018-10-06T18:57:38.221Z,96513.00
2018-10-06T19:00:08.816Z,96515.00
2018-10-06T19:02:38.526Z,96517.00
2018-10-06T19:05:08.202Z,96519.00
2018-10-06T19:07:37.843Z,96521.00
2018-10-06T19:10:07.480Z,96522.00
2018-10-06T19:12:37.108Z,96522.00
2018-10-06T19:15:06.901Z,96525.00
2018-10-06T19:17:36.610Z,96528.00
2018-10-06T19:20:06.759Z,96531.00
2018-10-06T19:22:36.410Z,96524.00
2018-10-06T19:25:06.173Z,96526.00
2018-10-06T19:27:35.954Z,96532.00
2018-10-06T19:30:05.777Z,96532.00
2018-10-06T19:32:35.398Z,96534.00
2018-10-06T19:35:05.115Z,96540.00
2018-10-06T19:37:34.787Z,96535.00
2018-10-06T19:40:04.422Z,96532.00
2018-10-06T19:42:34.143Z,96531.00
2018-10-06T19:45:03.914Z,96535.00
2018-10-06T19:47:33.749Z,96539.00
2018-10-06T19:50:03.567Z,96543.00
2018-10-06T19:52:33.378Z,96541.00
2018-10-06T19:55:03.067Z,96543.00
2018-10-06T19:57:32.826Z,96541.00
2018-10-06T20:00:02.655Z,96549.00
2018-10-06T20:02:32.606Z,96549.00
2018-10-06T20:05:02.464Z,96552.00
2018-10-06T20:07:32.144Z,96551.00
2018-10-06T20:10:01.987Z,96554.00
2018-10-06T20:12:32.036Z,96555.00
2018-10-06T20:15:01.721Z,96557.00
2018-10-06T20:17:31.474Z,96559.00
2018-10-06T20:20:01.273Z,96560.00
2018-10-06T20:22:31.378Z,96563.00
2018-10-06T20:25:01.025Z,96565.00
2018-10-06T20:27:30.822Z,96563.00
2018-10-06T20:30:00.664Z,96564.00
2018-10-06T20:32:30.443Z,96566.00
2018-10-06T20:35:00.103Z,96567.00
2018-10-06T20:37:29.710Z,96567.00
2018-10-06T20:39:59.418Z,96565.00
2018-10-06T20:42:29.166Z,96567.00
2018-10-06T20:44:58.909Z,96570.00
2018-10-06T20:47:28.594Z,96565.00
2018-10-06T20:49:58.226Z,96565.00
2018-10-06T20:52:27.838Z,96567.00
2018-10-06T20:54:57.419Z,96566.00
2018-10-06T20:57:27.052Z,96566.00
2018-10-06T20:59:56.750Z,96564.00
2018-10-06T21:02:30.323Z,96569.00
2018-10-06T21:05:00.103Z,96566.00
2018-10-06T21:07:29.898Z,96570.00
2018-10-06T21:09:59.591Z,96566.00
2018-10-06T21:12:29.601Z,96568.00
2018-10-06T21:14:59.303Z,96571.00
2018-10-06T21:17:28.963Z,96564.00
2018-10-06T21:19:58.663Z,96559.00
2018-10-06T21:22:28.394Z,96556.00
2018-10-06T21:24:58.071Z,96550.00
2018-10-06T21:27:27.788Z,96554.00
2018-10-06T21:29:57.444Z,96552.00
2018-10-06T21:32:27.184Z,96557.00
2018-10-06T21:34:56.974Z,96557.00
2018-10-06T21:37:26.658Z,96557.00
2018-10-06T21:39:56.301Z,96559.00
2018-10-06T21:42:26.011Z,96553.00
2018-10-06T21:44:55.606Z,96555.00
2018-10-06T21:47:25.366Z,96552.00
2018-10-06T21:49:55.168Z,96551.00
2018-10-06T21:52:24.823Z,96555.00
2018-10-06T21:54:54.434Z,96555.00
2018-10-06T21:57:24.151Z,96553.00
2018-10-06T21:59:53.838Z,96543.00
2018-10-06T22:02:23.518Z,96542.00
2018-10-06T22:04:53.187Z,96540.00
2018-10-06T22:07:22.822Z,96540.00
2018-10-06T22:09:52.553Z,96536.00
2018-10-06T22:12:22.234Z,96539.00
2018-10-06T22:14:54.073Z,96537.00
2018-10-06T22:17:23.747Z,96530.00
2018-10-06T22:20:10.125Z,96529.00
2018-10-06T22:22:39.972Z,96526.00
2018-10-06T22:25:09.898Z,96529.00
2018-10-06T22:27:39.811Z,96526.00
2018-10-06T22:30:09.990Z,96524.00
2018-10-06T22:32:39.834Z,96525.00
2018-10-06T22:35:09.476Z,96527.00
2018-10-06T22:37:39.119Z,96528.00
2018-10-06T22:40:10.082Z,96525.00
2018-10-06T22:42:39.847Z,96526.00
2018-10-06T22:45:11.186Z,96522.00
2018-10-06T22:47:40.955Z,96532.00
2018-10-06T22:50:10.702Z,96530.00
2018-10-06T22:52:42.692Z,96529.00
2018-10-06T22:55:15.226Z,96525.00
2018-10-06T22:57:45.179Z,96531.00
2018-10-06T23:00:14.851Z,96527.00
2018-10-06T23:02:44.489Z,96526.00
2018-10-06T23:05:15.131Z,96528.00
2018-10-06T23:07:44.807Z,96523.00
2018-10-06T23:10:14.447Z,96523.00
2018-10-06T23:12:44.259Z,96520.00
2018-10-06T23:15:13.963Z,96515.00
2018-10-06T23:17:43.619Z,96512.00
2018-10-06T23:20:13.294Z,96515.00
2018-10-06T23:22:42.902Z,96518.00
2018-10-06T23:25:12.611Z,96516.00
2018-10-06T23:27:42.223Z,96519.00
2018-10-06T23:30:11.864Z,96523.00
2018-10-06T23:32:41.527Z,96523.00
2018-10-06T23:35:11.175Z,96521.00
2018-10-06T23:37:40.931Z,96518.00
2018-10-06T23:40:10.686Z,96515.00
2018-10-06T23:42:40.925Z,96516.00
2018-10-06T23:45:10.552Z,96510.00
2018-10-06T23:47:40.304Z,96521.00
2018-10-06T23:50:10.146Z,96522.00
2018-10-06T23:52:39.743Z,96521.00
2018-10-06T23:55:09.374Z,96516.00
2018-10-06T23:57:39.023Z,96517.00
